createdAt,value
2019-04-07T00:00:03.953Z,8.32
2019-04-07T00:00:09.822Z,8.32
2019-04-07T00:00:15.268Z,8.31
2019-04-07T00:00:21.026Z,8.32
2019-04-07T00:00:26.559Z,8.32
2019-04-07T00:00:32.514Z,8.31
2019-04-07T00:00:38.122Z,8.31
2019-04-07T00:00:44.395Z,8.31
2019-04-07T00:00:50.256Z,8.31
2019-04-07T00:00:56.340Z,8.3
2019-04-07T00:01:02.329Z,8.31
2019-04-07T00:01:07.894Z,8.3
2019-04-07T00:01:13.785Z,8.3
2019-04-07T00:01:19.389Z,8.29
2019-04-07T00:01:25.181Z,8.29
2019-04-07T00:01:30.661Z,8.29
2019-04-07T00:01:36.644Z,8.29
2019-04-07T00:01:42.174Z,8.29
2019-04-07T00:01:47.775Z,8.29
2019-04-07T00:01:53.387Z,8.29
2019-04-07T00:01:59.462Z,8.29
2019-04-07T00:02:05.237Z,8.29
2019-04-07T00:02:11.016Z,8.29
2019-04-07T00:02:17.185Z,8.28
2019-04-07T00:02:22.408Z,8.28
2019-04-07T00:02:28.031Z,8.28
2019-04-07T00:02:33.970Z,8.27
2019-04-07T00:02:39.530Z,8.28
2019-04-07T00:02:45.246Z,8.27
2019-04-07T00:02:50.792Z,8.27
2019-04-07T00:02:56.835Z,8.27
2019-04-07T00:03:02.437Z,8.27
2019-04-07T00:03:08.780Z,8.26
2019-04-07T00:03:14.334Z,8.27
2019-04-07T00:03:20.760Z,8.27
2019-04-07T00:03:26.587Z,8.26
2019-04-07T00:03:32.303Z,8.27
2019-04-07T00:03:38.965Z,8.26
2019-04-07T00:03:44.899Z,8.26
2019-04-07T00:03:50.416Z,8.26
2019-04-07T00:03:56.641Z,8.25
2019-04-07T00:04:02.254Z,8.25
2019-04-07T00:04:08.653Z,8.25
2019-04-07T00:04:13.595Z,8.26
2019-04-07T00:04:19.166Z,8.24
2019-04-07T00:04:26.119Z,8.25
2019-04-07T00:04:31.762Z,8.25
2019-04-07T00:04:37.425Z,8.25
2019-04-07T00:04:44.196Z,8.25
2019-04-07T00:04:49.634Z,8.24
2019-04-07T00:04:55.787Z,8.26
2019-04-07T00:05:17.279Z,8.24
2019-04-07T00:05:23.746Z,8.24
2019-04-07T00:05:29.440Z,8.25
2019-04-07T00:05:35.591Z,8.25
2019-04-07T00:05:41.511Z,8.24
2019-04-07T00:05:47.229Z,8.24
2019-04-07T00:05:53.688Z,8.24
2019-04-07T00:05:59.775Z,8.23
2019-04-07T00:06:05.335Z,8.24
2019-04-07T00:06:11.661Z,8.23
2019-04-07T00:06:17.167Z,8.23
2019-04-07T00:06:23.605Z,8.23
2019-04-07T00:06:29.446Z,8.23
2019-04-07T00:06:35.063Z,8.23
2019-04-07T00:06:41.603Z,8.22
2019-04-07T00:06:47.663Z,8.21
2019-04-07T00:06:53.268Z,8.23
2019-04-07T00:06:59.555Z,8.23
2019-04-07T00:07:04.939Z,8.23
2019-04-07T00:07:11.464Z,8.23
2019-04-07T00:07:17.259Z,8.21
2019-04-07T00:07:22.889Z,8.21
2019-04-07T00:07:29.709Z,8.21
2019-04-07T00:07:35.317Z,8.21
2019-04-07T00:07:41.400Z,8.21
2019-04-07T00:07:47.215Z,8.21
2019-04-07T00:07:52.308Z,8.2
2019-04-07T00:07:57.475Z,8.2
2019-04-07T00:08:03.298Z,8.2
2019-04-07T00:08:09.090Z,8.19
2019-04-07T00:08:15.771Z,8.19
2019-04-07T00:08:21.674Z,8.19
2019-04-07T00:08:27.306Z,8.18
2019-04-07T00:08:33.935Z,8.18
2019-04-07T00:08:39.399Z,8.19
2019-04-07T00:08:45.208Z,8.18
2019-04-07T00:08:50.937Z,8.17
2019-04-07T00:08:56.418Z,8.18
2019-04-07T00:09:01.710Z,8.16
2019-04-07T00:09:07.820Z,8.17
2019-04-07T00:09:13.428Z,8.17
2019-04-07T00:09:20.414Z,8.17
2019-04-07T00:09:25.832Z,8.17
2019-04-07T00:09:30.881Z,8.17
2019-04-07T00:09:37.284Z,8.17
2019-04-07T00:09:42.471Z,8.16
2019-04-07T00:09:47.649Z,8.16
2019-04-07T00:09:54.130Z,8.16
2019-04-07T00:09:58.943Z,8.16
2019-04-07T00:10:04.329Z,8.15
2019-04-07T00:10:11.091Z,8.16
2019-04-07T00:10:16.238Z,8.16
2019-04-07T00:10:21.877Z,8.16
2019-04-07T00:10:28.633Z,8.15
2019-04-07T00:10:34.257Z,8.14
2019-04-07T00:10:40.171Z,8.16
2019-04-07T00:10:46.912Z,8.15
2019-04-07T00:10:52.823Z,8.14
2019-04-07T00:10:57.811Z,8.14
2019-04-07T00:11:03.857Z,8.14
2019-04-07T00:11:09.402Z,8.15
2019-04-07T00:11:15.079Z,8.13
2019-04-07T00:11:21.507Z,8.14
2019-04-07T00:11:27.822Z,8.14
2019-04-07T00:11:32.415Z,8.13
2019-04-07T00:11:38.393Z,8.14
2019-04-07T00:11:44.058Z,8.13
2019-04-07T00:11:49.704Z,8.13
2019-04-07T00:11:56.216Z,8.14
2019-04-07T00:12:01.303Z,8.13
2019-04-07T00:12:06.068Z,8.14
2019-04-07T00:12:12.598Z,8.12
2019-04-07T00:12:18.101Z,8.14
2019-04-07T00:12:22.472Z,8.13
2019-04-07T00:12:29.245Z,8.14
2019-04-07T00:12:34.542Z,8.13
2019-04-07T00:12:39.864Z,8.13
2019-04-07T00:12:46.423Z,8.13
2019-04-07T00:12:52.270Z,8.13
2019-04-07T00:12:57.331Z,8.13
2019-04-07T00:13:02.093Z,8.13
2019-04-07T00:13:07.858Z,8.13
2019-04-07T00:13:13.609Z,8.13
2019-04-07T00:13:19.256Z,8.13
2019-04-07T00:13:23.466Z,8.13
2019-04-07T00:13:29.381Z,8.12
2019-04-07T00:13:35.172Z,8.13
2019-04-07T00:13:41.335Z,8.13
2019-04-07T00:13:46.904Z,8.13
2019-04-07T00:13:53.282Z,8.12
2019-04-07T00:13:58.912Z,8.11
2019-04-07T00:14:04.033Z,8.12
2019-04-07T00:14:09.080Z,8.12
2019-04-07T00:14:14.664Z,8.12
2019-04-07T00:14:20.665Z,8.12
2019-04-07T00:14:26.094Z,8.12
2019-04-07T00:14:32.921Z,8.11
2019-04-07T00:14:37.969Z,8.12
2019-04-07T00:14:43.722Z,8.12
2019-04-07T00:14:49.399Z,8.12
2019-04-07T00:14:55.259Z,8.11
2019-04-07T00:14:59.871Z,8.11
2019-04-07T00:15:04.849Z,8.12
2019-04-07T00:15:11.319Z,8.11
2019-04-07T00:15:16.739Z,8.11
2019-04-07T00:15:21.965Z,8.11
2019-04-07T00:15:28.973Z,8.1
2019-04-07T00:15:34.457Z,8.1
2019-04-07T00:15:39.920Z,8.11
2019-04-07T00:15:46.267Z,8.11
2019-04-07T00:15:51.909Z,8.11
2019-04-07T00:15:56.417Z,8.1
2019-04-07T00:16:02.556Z,8.1
2019-04-07T00:16:08.391Z,8.1
2019-04-07T00:16:13.476Z,8.1
2019-04-07T00:16:19.393Z,8.1
2019-04-07T00:16:25.162Z,8.11
2019-04-07T00:16:30.933Z,8.1
2019-04-07T00:16:35.896Z,8.1
2019-04-07T00:16:41.485Z,8.1
2019-04-07T00:16:47.028Z,8.09
2019-04-07T00:16:54.412Z,8.09
2019-04-07T00:17:00.755Z,8.09
2019-04-07T00:17:05.698Z,8.1
2019-04-07T00:17:12.124Z,8.08
2019-04-07T00:17:16.893Z,8.09
2019-04-07T00:17:22.789Z,8.09
2019-04-07T00:17:29.381Z,8.09
2019-04-07T00:17:34.490Z,8.08
2019-04-07T00:17:40.137Z,8.08
2019-04-07T00:17:45.606Z,8.08
2019-04-07T00:17:51.294Z,8.08
2019-04-07T00:17:56.814Z,8.08
2019-04-07T00:18:02.308Z,8.08
2019-04-07T00:18:07.775Z,8.08
2019-04-07T00:18:13.334Z,8.07
2019-04-07T00:18:19.133Z,8.07
2019-04-07T00:18:25.623Z,8.08
2019-04-07T00:18:30.778Z,8.07
2019-04-07T00:18:35.767Z,8.07
2019-04-07T00:18:41.793Z,8.06
2019-04-07T00:18:48.176Z,8.06
2019-04-07T00:18:53.549Z,8.07
2019-04-07T00:19:00.139Z,8.06
2019-04-07T00:19:06.610Z,8.07
2019-04-07T00:19:12.240Z,8.07
2019-04-07T00:19:18.884Z,8.06
2019-04-07T00:19:24.651Z,8.07
2019-04-07T00:19:30.658Z,8.06
2019-04-07T00:19:35.675Z,8.06
2019-04-07T00:19:41.706Z,8.06
2019-04-07T00:19:48.065Z,8.06
2019-04-07T00:19:53.508Z,8.06
2019-04-07T00:19:59.074Z,8.06
2019-04-07T00:20:04.143Z,8.05
2019-04-07T00:20:10.557Z,8.05
2019-04-07T00:20:16.474Z,8.05
2019-04-07T00:20:22.043Z,8.05
2019-04-07T00:20:28.042Z,8.05
2019-04-07T00:20:33.602Z,8.05
2019-04-07T00:20:39.410Z,8.05
2019-04-07T00:20:45.428Z,8.05
2019-04-07T00:20:51.032Z,8.05
2019-04-07T00:20:57.812Z,8.05
2019-04-07T00:21:02.956Z,8.04
2019-04-07T00:21:08.310Z,8.04
2019-04-07T00:21:14.576Z,8.04
2019-04-07T00:21:20.661Z,8.04
2019-04-07T00:21:26.131Z,8.03
2019-04-07T00:21:33.113Z,8.03
2019-04-07T00:21:38.665Z,8.05
2019-04-07T00:21:44.638Z,8.04
2019-04-07T00:21:50.828Z,8.04
2019-04-07T00:21:56.746Z,8.05
2019-04-07T00:22:01.607Z,8.04
2019-04-07T00:22:06.245Z,8.05
2019-04-07T00:22:12.075Z,8.05
2019-04-07T00:22:17.838Z,8.04
2019-04-07T00:22:23.698Z,8.05
2019-04-07T00:22:28.017Z,8.04
2019-04-07T00:22:33.557Z,8.03
2019-04-07T00:22:38.779Z,8.04
2019-04-07T00:22:43.648Z,8.04
2019-04-07T00:22:48.776Z,8.04
2019-04-07T00:22:55.122Z,8.04
2019-04-07T00:23:00.977Z,8.04
2019-04-07T00:23:06.253Z,8.03
2019-04-07T00:23:11.950Z,8.03
2019-04-07T00:23:18.372Z,8.03
2019-04-07T00:23:24.184Z,8.03
2019-04-07T00:23:29.553Z,8.04
2019-04-07T00:23:35.745Z,8.03
2019-04-07T00:23:40.401Z,8.03
2019-04-07T00:23:46.200Z,8.03
2019-04-07T00:23:50.779Z,8.03
2019-04-07T00:23:56.808Z,8.03
2019-04-07T00:24:05.724Z,8.02
2019-04-07T00:24:10.990Z,8.02
2019-04-07T00:24:15.853Z,8.03
2019-04-07T00:24:21.876Z,8.02
2019-04-07T00:24:26.785Z,8.02
2019-04-07T00:24:31.107Z,8.02
2019-04-07T00:24:37.239Z,8.02
2019-04-07T00:24:42.455Z,8.02
2019-04-07T00:24:47.945Z,8.02
2019-04-07T00:24:52.671Z,8.02
2019-04-07T00:24:57.093Z,8.01
2019-04-07T00:25:04.071Z,8.01
2019-04-07T00:25:08.945Z,8.01
2019-04-07T00:25:14.619Z,8.01
2019-04-07T00:25:20.055Z,8.02
2019-04-07T00:25:25.843Z,8.02
2019-04-07T00:25:31.468Z,8.01
2019-04-07T00:25:36.327Z,8.01
2019-04-07T00:25:42.332Z,8.01
2019-04-07T00:25:47.976Z,8.01
2019-04-07T00:25:52.445Z,8.01
2019-04-07T00:25:57.696Z,8.01
2019-04-07T00:26:04.872Z,8.01
2019-04-07T00:26:09.774Z,8
2019-04-07T00:26:14.998Z,8
2019-04-07T00:26:20.324Z,8
2019-04-07T00:26:26.388Z,8
2019-04-07T00:26:31.150Z,8
2019-04-07T00:26:35.831Z,8.01
2019-04-07T00:26:41.630Z,7.99
2019-04-07T00:26:48.714Z,8
2019-04-07T00:26:54.425Z,8
2019-04-07T00:26:59.792Z,8
2019-04-07T00:27:05.723Z,8
2019-04-07T00:27:10.933Z,8
2019-04-07T00:27:15.879Z,7.99
2019-04-07T00:27:22.355Z,7.99
2019-04-07T00:27:27.875Z,7.98
2019-04-07T00:27:32.640Z,7.99
2019-04-07T00:27:37.899Z,7.99
2019-04-07T00:27:43.858Z,7.99
2019-04-07T00:27:49.214Z,7.98
2019-04-07T00:27:54.326Z,7.99
2019-04-07T00:27:59.706Z,7.99
2019-04-07T00:28:06.180Z,7.99
2019-04-07T00:28:10.887Z,7.99
2019-04-07T00:28:16.137Z,7.99
2019-04-07T00:28:22.058Z,7.98
2019-04-07T00:28:26.477Z,7.97
2019-04-07T00:28:32.493Z,7.99
2019-04-07T00:28:37.463Z,7.98
2019-04-07T00:28:44.411Z,7.98
2019-04-07T00:28:49.791Z,7.98
2019-04-07T00:28:55.467Z,7.98
2019-04-07T00:29:02.362Z,7.98
2019-04-07T00:29:06.822Z,7.97
2019-04-07T00:29:12.478Z,7.97
2019-04-07T00:29:18.164Z,7.97
2019-04-07T00:29:24.531Z,7.96
2019-04-07T00:29:30.345Z,7.97
2019-04-07T00:29:35.488Z,7.96
2019-04-07T00:29:41.694Z,7.96
2019-04-07T00:29:46.925Z,7.96
2019-04-07T00:29:51.586Z,7.96
2019-04-07T00:29:57.086Z,7.96
2019-04-07T00:30:02.646Z,7.97
2019-04-07T00:30:07.603Z,7.95
2019-04-07T00:30:12.504Z,7.96
2019-04-07T00:30:19.068Z,7.95
2019-04-07T00:30:24.633Z,7.96
2019-04-07T00:30:29.273Z,7.96
2019-04-07T00:30:34.941Z,7.95
2019-04-07T00:30:41.406Z,7.95
2019-04-07T00:30:46.676Z,7.95
2019-04-07T00:30:52.080Z,7.94
2019-04-07T00:30:56.400Z,7.94
2019-04-07T00:31:01.922Z,7.94
2019-04-07T00:31:07.328Z,7.93
2019-04-07T00:31:12.221Z,7.94
2019-04-07T00:31:18.051Z,7.94
2019-04-07T00:31:24.705Z,7.94
2019-04-07T00:31:30.318Z,7.93
2019-04-07T00:31:34.511Z,7.93
2019-04-07T00:31:39.827Z,7.93
2019-04-07T00:31:45.532Z,7.92
2019-04-07T00:31:50.046Z,7.92
2019-04-07T00:31:55.725Z,7.93
2019-04-07T00:32:00.852Z,7.93
2019-04-07T00:32:06.664Z,7.92
2019-04-07T00:32:11.841Z,7.92
2019-04-07T00:32:16.317Z,7.92
2019-04-07T00:32:21.142Z,7.92
2019-04-07T00:32:27.357Z,7.93
2019-04-07T00:32:31.947Z,7.93
2019-04-07T00:32:37.256Z,7.92
2019-04-07T00:32:42.240Z,7.91
2019-04-07T00:32:48.412Z,7.92
2019-04-07T00:32:53.512Z,7.92
2019-04-07T00:32:58.416Z,7.92
2019-04-07T00:33:05.010Z,7.92
2019-04-07T00:33:09.749Z,7.92
2019-04-07T00:33:15.255Z,7.92
2019-04-07T00:33:21.264Z,7.92
2019-04-07T00:33:26.310Z,7.91
2019-04-07T00:33:32.204Z,7.91
2019-04-07T00:33:37.071Z,7.91
2019-04-07T00:33:42.629Z,7.92
2019-04-07T00:33:48.565Z,7.91
2019-04-07T00:33:53.745Z,7.91
2019-04-07T00:33:58.227Z,7.91
2019-04-07T00:34:05.282Z,7.92
2019-04-07T00:34:10.823Z,7.92
2019-04-07T00:34:16.184Z,7.91
2019-04-07T00:34:22.886Z,7.91
2019-04-07T00:34:28.884Z,7.91
2019-04-07T00:34:33.898Z,7.92
2019-04-07T00:34:40.477Z,7.91
2019-04-07T00:34:45.841Z,7.91
2019-04-07T00:34:51.055Z,7.9
2019-04-07T00:34:57.571Z,7.92
2019-04-07T00:35:03.081Z,7.92
2019-04-07T00:35:08.798Z,7.91
2019-04-07T00:35:35.528Z,7.9
2019-04-07T00:35:41.082Z,7.91
2019-04-07T00:35:46.856Z,7.91
2019-04-07T00:35:52.906Z,7.91
2019-04-07T00:35:58.157Z,7.91
2019-04-07T00:36:04.883Z,7.89
2019-04-07T00:36:10.320Z,7.9
2019-04-07T00:36:15.257Z,7.9
2019-04-07T00:36:21.797Z,7.88
2019-04-07T00:36:27.870Z,7.89
2019-04-07T00:36:32.868Z,7.89
2019-04-07T00:36:39.648Z,7.89
2019-04-07T00:36:44.702Z,7.88
2019-04-07T00:36:49.743Z,7.88
2019-04-07T00:36:55.615Z,7.89
2019-04-07T00:37:01.522Z,7.88
2019-04-07T00:37:06.267Z,7.88
2019-04-07T00:37:11.702Z,7.87
2019-04-07T00:37:18.332Z,7.87
2019-04-07T00:37:23.714Z,7.87
2019-04-07T00:37:29.546Z,7.87
2019-04-07T00:37:35.153Z,7.87
2019-04-07T00:37:40.529Z,7.86
2019-04-07T00:37:47.361Z,7.88
2019-04-07T00:37:52.868Z,7.87
2019-04-07T00:37:58.286Z,7.86
2019-04-07T00:38:04.854Z,7.87
2019-04-07T00:38:10.317Z,7.87
2019-04-07T00:38:15.964Z,7.87
2019-04-07T00:38:21.739Z,7.87
2019-04-07T00:38:27.096Z,7.86
2019-04-07T00:38:33.803Z,7.86
2019-04-07T00:38:39.382Z,7.85
2019-04-07T00:38:45.060Z,7.85
2019-04-07T00:38:51.524Z,7.85
2019-04-07T00:38:56.927Z,7.85
2019-04-07T00:39:02.704Z,7.85
2019-04-07T00:39:08.375Z,7.85
2019-04-07T00:39:13.697Z,7.85
2019-04-07T00:39:20.675Z,7.85
2019-04-07T00:39:25.932Z,7.85
2019-04-07T00:39:31.312Z,7.84
2019-04-07T00:39:36.967Z,7.85
2019-04-07T00:39:42.262Z,7.84
2019-04-07T00:39:47.688Z,7.85
2019-04-07T00:39:54.095Z,7.84
2019-04-07T00:39:59.683Z,7.85
2019-04-07T00:40:05.394Z,7.85
2019-04-07T00:40:11.167Z,7.84
2019-04-07T00:40:16.551Z,7.85
2019-04-07T00:40:23.101Z,7.84
2019-04-07T00:40:28.357Z,7.84
2019-04-07T00:40:33.826Z,7.84
2019-04-07T00:40:40.372Z,7.84
2019-04-07T00:40:45.687Z,7.83
2019-04-07T00:40:51.013Z,7.83
2019-04-07T00:40:57.434Z,7.83
2019-04-07T00:41:02.969Z,7.82
2019-04-07T00:41:08.802Z,7.83
2019-04-07T00:41:14.572Z,7.82
2019-04-07T00:41:19.961Z,7.82
2019-04-07T00:41:26.318Z,7.82
2019-04-07T00:41:32.117Z,7.82
2019-04-07T00:41:37.568Z,7.82
2019-04-07T00:41:43.663Z,7.82
2019-04-07T00:41:49.159Z,7.82
2019-04-07T00:41:55.084Z,7.81
2019-04-07T00:42:00.626Z,7.82
2019-04-07T00:42:06.033Z,7.81
2019-04-07T00:42:12.735Z,7.81
2019-04-07T00:42:18.171Z,7.8
2019-04-07T00:42:23.689Z,7.81
2019-04-07T00:42:30.025Z,7.8
2019-04-07T00:42:35.426Z,7.8
2019-04-07T00:42:41.316Z,7.8
2019-04-07T00:42:47.016Z,7.8
2019-04-07T00:42:52.503Z,7.8
2019-04-07T00:42:58.973Z,7.79
2019-04-07T00:43:04.503Z,7.8
2019-04-07T00:43:09.960Z,7.8
2019-04-07T00:43:16.273Z,7.8
2019-04-07T00:43:21.628Z,7.79
2019-04-07T00:43:27.499Z,7.79
2019-04-07T00:43:33.239Z,7.79
2019-04-07T00:43:38.718Z,7.79
2019-04-07T00:43:45.213Z,7.79
2019-04-07T00:43:50.595Z,7.79
2019-04-07T00:43:56.155Z,7.78
2019-04-07T00:44:02.474Z,7.78
2019-04-07T00:44:07.840Z,7.78
2019-04-07T00:44:12.513Z,7.78
2019-04-07T00:44:18.938Z,7.77
2019-04-07T00:44:24.694Z,7.77
2019-04-07T00:44:29.999Z,7.77
2019-04-07T00:44:36.034Z,7.76
2019-04-07T00:44:41.431Z,7.75
2019-04-07T00:44:47.460Z,7.75
2019-04-07T00:44:53.268Z,7.75
2019-04-07T00:44:58.679Z,7.75
2019-04-07T00:45:06.114Z,7.74
2019-04-07T00:45:11.467Z,7.74
2019-04-07T00:45:17.221Z,7.73
2019-04-07T00:45:23.039Z,7.74
2019-04-07T00:45:28.383Z,7.73
2019-04-07T00:45:35.291Z,7.73
2019-04-07T00:45:40.546Z,7.72
2019-04-07T00:45:45.946Z,7.72
2019-04-07T00:45:53.320Z,7.72
2019-04-07T00:45:58.751Z,7.71
2019-04-07T00:46:04.633Z,7.71
2019-04-07T00:46:10.322Z,7.71
2019-04-07T00:46:15.954Z,7.71
2019-04-07T00:46:22.469Z,7.71
2019-04-07T00:46:27.944Z,7.71
2019-04-07T00:46:33.232Z,7.7
2019-04-07T00:46:39.780Z,7.7
2019-04-07T00:46:45.187Z,7.69
2019-04-07T00:46:50.992Z,7.69
2019-04-07T00:46:56.527Z,7.7
2019-04-07T00:47:02.160Z,7.69
2019-04-07T00:47:08.629Z,7.69
2019-04-07T00:47:14.026Z,7.68
2019-04-07T00:47:19.553Z,7.68
2019-04-07T00:47:26.031Z,7.68
2019-04-07T00:47:31.426Z,7.68
2019-04-07T00:47:37.260Z,7.67
2019-04-07T00:47:42.981Z,7.67
2019-04-07T00:47:48.472Z,7.67
2019-04-07T00:47:54.506Z,7.67
2019-04-07T00:48:00.420Z,7.67
2019-04-07T00:48:04.988Z,7.67
2019-04-07T00:48:11.292Z,7.67
2019-04-07T00:48:16.855Z,7.67
2019-04-07T00:48:22.143Z,7.66
2019-04-07T00:48:28.672Z,7.66
2019-04-07T00:48:34.067Z,7.67
2019-04-07T00:48:39.551Z,7.66
2019-04-07T00:48:45.664Z,7.65
2019-04-07T00:48:51.012Z,7.65
2019-04-07T00:48:57.670Z,7.65
2019-04-07T00:49:02.938Z,7.65
2019-04-07T00:49:08.312Z,7.65
2019-04-07T00:49:14.867Z,7.65
2019-04-07T00:49:20.589Z,7.64
2019-04-07T00:49:25.806Z,7.64
2019-04-07T00:50:09.513Z,7.64
2019-04-07T00:50:15.296Z,7.63
2019-04-07T00:50:21.030Z,7.64
2019-04-07T00:50:26.462Z,7.63
2019-04-07T00:50:32.589Z,7.64
2019-04-07T00:50:38.335Z,7.63
2019-04-07T00:50:43.716Z,7.64
2019-04-07T00:50:50.328Z,7.64
2019-04-07T00:50:55.896Z,7.63
2019-04-07T00:51:01.439Z,7.63
2019-04-07T00:51:07.801Z,7.62
2019-04-07T00:51:13.137Z,7.63
2019-04-07T00:51:18.769Z,7.63
2019-04-07T00:51:25.590Z,7.62
2019-04-07T00:51:31.045Z,7.62
2019-04-07T00:51:38.449Z,7.62
2019-04-07T00:51:43.972Z,7.62
2019-04-07T00:51:49.720Z,7.62
2019-04-07T00:51:55.335Z,7.61
2019-04-07T00:52:01.232Z,7.61
2019-04-07T00:52:07.100Z,7.61
2019-04-07T00:52:12.861Z,7.61
2019-04-07T00:52:18.221Z,7.62
2019-04-07T00:52:24.833Z,7.61
2019-04-07T00:52:30.262Z,7.61
2019-04-07T00:52:36.043Z,7.61
2019-04-07T00:52:41.729Z,7.6
2019-04-07T00:52:47.192Z,7.6
2019-04-07T00:52:53.773Z,7.6
2019-04-07T00:52:59.026Z,7.59
2019-04-07T00:53:04.486Z,7.6
2019-04-07T00:53:11.005Z,7.6
2019-04-07T00:53:16.358Z,7.58
2019-04-07T00:53:22.068Z,7.58
2019-04-07T00:53:27.868Z,7.58
2019-04-07T00:53:33.134Z,7.58
2019-04-07T00:53:40.798Z,7.58
2019-04-07T00:53:46.366Z,7.57
2019-04-07T00:53:51.938Z,7.58
2019-04-07T00:53:57.264Z,7.57
2019-04-07T00:54:02.673Z,7.56
2019-04-07T00:54:08.384Z,7.56
2019-04-07T00:54:13.365Z,7.55
2019-04-07T00:54:18.823Z,7.56
2019-04-07T00:54:24.766Z,7.55
2019-04-07T00:54:30.555Z,7.56
2019-04-07T00:54:35.931Z,7.55
2019-04-07T00:54:42.404Z,7.55
2019-04-07T00:54:47.923Z,7.56
2019-04-07T00:54:53.477Z,7.55
2019-04-07T00:54:59.566Z,7.55
2019-04-07T00:55:05.002Z,7.55
2019-04-07T00:55:10.872Z,7.55
2019-04-07T00:55:16.690Z,7.55
2019-04-07T00:55:22.123Z,7.55
2019-04-07T00:55:28.441Z,7.54
2019-04-07T00:55:34.295Z,7.55
2019-04-07T00:55:39.676Z,7.55
2019-04-07T00:55:45.746Z,7.55
2019-04-07T00:55:51.281Z,7.54
2019-04-07T00:55:57.674Z,7.55
2019-04-07T00:56:02.862Z,7.55
2019-04-07T00:56:08.290Z,7.55
2019-04-07T00:56:14.519Z,7.55
2019-04-07T00:56:20.499Z,7.55
2019-04-07T00:56:25.859Z,7.54
2019-04-07T00:56:31.928Z,7.54
2019-04-07T00:56:37.431Z,7.54
2019-04-07T00:56:43.839Z,7.54
2019-04-07T00:56:49.066Z,7.54
2019-04-07T00:56:54.461Z,7.55
2019-04-07T00:57:01.004Z,7.54
2019-04-07T00:57:06.630Z,7.54
2019-04-07T00:57:12.010Z,7.54
2019-04-07T00:57:18.040Z,7.54
2019-04-07T00:57:23.420Z,7.55
2019-04-07T00:57:29.625Z,7.55
2019-04-07T00:57:35.372Z,7.54
2019-04-07T00:57:40.755Z,7.55
2019-04-07T00:57:46.997Z,7.54
2019-04-07T00:57:52.951Z,7.54
2019-04-07T00:57:58.365Z,7.54
2019-04-07T00:58:04.404Z,7.55
2019-04-07T00:58:09.879Z,7.55
2019-04-07T00:58:15.728Z,7.55
2019-04-07T00:58:21.454Z,7.54
2019-04-07T00:58:26.914Z,7.55
2019-04-07T00:58:33.418Z,7.55
2019-04-07T00:58:39.083Z,7.55
2019-04-07T00:58:44.527Z,7.55
2019-04-07T00:58:50.695Z,7.55
2019-04-07T00:58:56.168Z,7.55
2019-04-07T00:59:02.643Z,7.56
2019-04-07T00:59:07.704Z,7.55
2019-04-07T00:59:13.205Z,7.55
2019-04-07T00:59:19.714Z,7.56
2019-04-07T00:59:25.455Z,7.55
2019-04-07T00:59:30.853Z,7.55
2019-04-07T00:59:36.776Z,7.55
2019-04-07T00:59:42.363Z,7.56
2019-04-07T00:59:48.821Z,7.54
2019-04-07T00:59:54.037Z,7.56
2019-04-07T00:59:59.454Z,7.55
2019-04-07T01:00:05.924Z,7.56
2019-04-07T01:00:11.806Z,7.56
2019-04-07T01:00:20.320Z,7.55
2019-04-07T01:00:25.919Z,7.56
2019-04-07T01:00:31.270Z,7.57
2019-04-07T01:00:37.902Z,7.56
2019-04-07T01:00:43.422Z,7.56
2019-04-07T01:00:48.979Z,7.57
2019-04-07T01:00:55.156Z,7.57
2019-04-07T01:01:00.964Z,7.57
2019-04-07T01:01:06.338Z,7.57
2019-04-07T01:01:12.308Z,7.56
2019-04-07T01:01:17.995Z,7.57
2019-04-07T01:01:24.423Z,7.57
2019-04-07T01:01:29.515Z,7.57
2019-04-07T01:01:35.023Z,7.57
2019-04-07T01:01:41.393Z,7.56
2019-04-07T01:01:47.188Z,7.57
2019-04-07T01:01:52.597Z,7.57
2019-04-07T01:01:58.774Z,7.57
2019-04-07T01:02:04.092Z,7.57
2019-04-07T01:02:10.562Z,7.58
2019-04-07T01:02:15.736Z,7.57
2019-04-07T01:02:21.223Z,7.57
2019-04-07T01:02:27.639Z,7.57
2019-04-07T01:02:33.158Z,7.57
2019-04-07T01:02:38.800Z,7.58
2019-04-07T01:02:44.804Z,7.58
2019-04-07T01:02:50.227Z,7.58
2019-04-07T01:02:56.090Z,7.58
2019-04-07T01:03:01.942Z,7.58
2019-04-07T01:03:07.287Z,7.58
2019-04-07T01:03:13.694Z,7.59
2019-04-07T01:03:19.483Z,7.58
2019-04-07T01:03:24.891Z,7.59
2019-04-07T01:03:30.937Z,7.59
2019-04-07T01:03:36.497Z,7.6
2019-04-07T01:03:42.297Z,7.59
2019-04-07T01:03:48.143Z,7.59
2019-04-07T01:03:53.456Z,7.59
2019-04-07T01:03:59.779Z,7.59
2019-04-07T01:04:05.656Z,7.6
2019-04-07T01:04:11.127Z,7.59
2019-04-07T01:04:17.179Z,7.6
2019-04-07T01:04:22.667Z,7.59
2019-04-07T01:04:28.566Z,7.59
2019-04-07T01:04:34.285Z,7.6
2019-04-07T01:04:39.669Z,7.6
2019-04-07T01:04:46.034Z,7.6
2019-04-07T01:04:51.807Z,7.6
2019-04-07T01:04:57.244Z,7.6
2019-04-07T01:05:03.339Z,7.6
2019-04-07T01:05:08.831Z,7.6
2019-04-07T01:05:14.692Z,7.6
2019-04-07T01:05:20.588Z,7.6
2019-04-07T01:05:45.750Z,7.6
2019-04-07T01:05:51.110Z,7.61
2019-04-07T01:05:57.540Z,7.61
2019-04-07T01:06:03.382Z,7.61
2019-04-07T01:06:08.710Z,7.6
2019-04-07T01:06:14.066Z,7.61
2019-04-07T01:06:19.514Z,7.6
2019-04-07T01:06:25.223Z,7.6
2019-04-07T01:06:30.856Z,7.6
2019-04-07T01:06:36.424Z,7.6
2019-04-07T01:06:42.847Z,7.6
2019-04-07T01:06:48.286Z,7.6
2019-04-07T01:06:53.698Z,7.6
2019-04-07T01:07:00.228Z,7.6
2019-04-07T01:07:05.558Z,7.61
2019-04-07T01:07:11.386Z,7.6
2019-04-07T01:07:17.090Z,7.61
2019-04-07T01:07:22.474Z,7.6
2019-04-07T01:07:29.948Z,7.6
2019-04-07T01:07:35.489Z,7.61
2019-04-07T01:07:41.018Z,7.6
2019-04-07T01:07:47.111Z,7.6
2019-04-07T01:07:52.578Z,7.6
2019-04-07T01:07:58.394Z,7.6
2019-04-07T01:08:04.283Z,7.6
2019-04-07T01:08:09.708Z,7.6
2019-04-07T01:08:16.246Z,7.6
2019-04-07T01:08:21.615Z,7.59
2019-04-07T01:08:27.122Z,7.6
2019-04-07T01:08:33.520Z,7.6
2019-04-07T01:08:38.894Z,7.6
2019-04-07T01:08:44.795Z,7.6
2019-04-07T01:08:50.566Z,7.61
2019-04-07T01:08:55.973Z,7.61
2019-04-07T01:09:01.885Z,7.6
2019-04-07T01:09:06.991Z,7.6
2019-04-07T01:09:12.350Z,7.6
2019-04-07T01:09:18.784Z,7.6
2019-04-07T01:09:24.527Z,7.61
2019-04-07T01:09:29.907Z,7.6
2019-04-07T01:09:36.004Z,7.6
2019-04-07T01:09:41.483Z,7.6
2019-04-07T01:09:47.296Z,7.6
2019-04-07T01:09:53.155Z,7.61
2019-04-07T01:09:58.536Z,7.6
2019-04-07T01:10:06.159Z,7.6
2019-04-07T01:10:11.692Z,7.6
2019-04-07T01:10:17.432Z,7.6
2019-04-07T01:10:23.113Z,7.61
2019-04-07T01:10:28.896Z,7.6
2019-04-07T01:10:34.729Z,7.6
2019-04-07T01:10:40.524Z,7.61
2019-04-07T01:10:45.880Z,7.61
2019-04-07T01:10:52.478Z,7.6
2019-04-07T01:10:57.983Z,7.61
2019-04-07T01:11:03.508Z,7.6
2019-04-07T01:11:09.599Z,7.6
2019-04-07T01:11:15.081Z,7.6
2019-04-07T01:11:20.891Z,7.6
2019-04-07T01:11:25.768Z,7.59
2019-04-07T01:11:31.167Z,7.6
2019-04-07T01:11:37.093Z,7.6
2019-04-07T01:11:43.058Z,7.6
2019-04-07T01:11:48.558Z,7.59
2019-04-07T01:11:54.871Z,7.59
2019-04-07T01:12:00.286Z,7.59
2019-04-07T01:12:06.073Z,7.59
2019-04-07T01:12:11.792Z,7.58
2019-04-07T01:12:17.159Z,7.59
2019-04-07T01:12:23.810Z,7.58
2019-04-07T01:12:29.312Z,7.58
2019-04-07T01:12:34.640Z,7.58
2019-04-07T01:12:41.138Z,7.58
2019-04-07T01:12:46.541Z,7.58
2019-04-07T01:12:52.173Z,7.58
2019-04-07T01:12:57.885Z,7.58
2019-04-07T01:13:03.235Z,7.57
2019-04-07T01:13:09.365Z,7.57
2019-04-07T01:13:15.325Z,7.58
2019-04-07T01:13:20.815Z,7.57
2019-04-07T01:13:27.319Z,7.58
2019-04-07T01:13:32.721Z,7.57
2019-04-07T01:13:38.543Z,7.57
2019-04-07T01:13:44.270Z,7.56
2019-04-07T01:13:49.735Z,7.57
2019-04-07T01:13:55.621Z,7.57
2019-04-07T01:14:01.615Z,7.57
2019-04-07T01:14:07.017Z,7.57
2019-04-07T01:14:13.576Z,7.56
2019-04-07T01:14:18.934Z,7.56
2019-04-07T01:14:24.748Z,7.56
2019-04-07T01:14:30.523Z,7.56
2019-04-07T01:14:35.888Z,7.56
2019-04-07T01:14:42.423Z,7.56
2019-04-07T01:14:47.875Z,7.55
2019-04-07T01:14:53.338Z,7.55
2019-04-07T01:14:59.621Z,7.55
2019-04-07T01:15:05.078Z,7.55
2019-04-07T01:15:10.886Z,7.56
2019-04-07T01:15:16.619Z,7.55
2019-04-07T01:15:22.149Z,7.56
2019-04-07T01:15:28.486Z,7.56
2019-04-07T01:15:33.969Z,7.55
2019-04-07T01:15:39.492Z,7.55
2019-04-07T01:15:45.999Z,7.55
2019-04-07T01:15:51.360Z,7.55
2019-04-07T01:15:57.128Z,7.55
2019-04-07T01:16:02.924Z,7.55
2019-04-07T01:16:08.170Z,7.55
2019-04-07T01:16:13.960Z,7.55
2019-04-07T01:16:18.840Z,7.55
2019-04-07T01:16:24.281Z,7.54
2019-04-07T01:16:30.710Z,7.54
2019-04-07T01:16:36.239Z,7.55
2019-04-07T01:16:41.788Z,7.54
2019-04-07T01:16:48.192Z,7.54
2019-04-07T01:16:53.698Z,7.54
2019-04-07T01:16:59.433Z,7.54
2019-04-07T01:17:05.176Z,7.55
2019-04-07T01:17:10.625Z,7.53
2019-04-07T01:17:17.165Z,7.54
2019-04-07T01:17:22.488Z,7.54
2019-04-07T01:17:27.924Z,7.54
2019-04-07T01:17:34.485Z,7.54
2019-04-07T01:17:39.978Z,7.54
2019-04-07T01:17:45.698Z,7.54
2019-04-07T01:17:51.390Z,7.53
2019-04-07T01:17:56.841Z,7.55
2019-04-07T01:18:04.081Z,7.54
2019-04-07T01:18:09.955Z,7.54
2019-04-07T01:18:15.393Z,7.54